sensor_id;sensor_type;location;lat;lon;timestamp;pressure;altitude;pressure_sealevel;temperature;humidity
65553;BME280;52465;51.560;14.368;2023-02-13T00:01:59;102376.22;;;7.00;67.00
65553;BME280;52465;51.560;14.368;2023-02-13T00:04:25;102379.66;;;7.00;67.06
65553;BME280;52465;51.560;14.368;2023-02-13T00:06:51;102406.44;;;7.20;67.11
65553;BME280;52465;51.560;14.368;2023-02-13T00:09:17;102336.72;;;6.76;66.42
65553;BME280;52465;51.560;14.368;2023-02-13T00:11:43;102349.16;;;6.86;67.00
65553;BME280;52465;51.560;14.368;2023-02-13T00:14:08;102397.09;;;7.15;66.51
65553;BME280;52465;51.560;14.368;2023-02-13T00:16:34;102397.78;;;7.19;66.73
65553;BME280;52465;51.560;14.368;2023-02-13T00:19:00;102374.56;;;6.99;67.03
65553;BME280;52465;51.560;14.368;2023-02-13T00:21:26;102387.50;;;7.16;66.84
65553;BME280;52465;51.560;14.368;2023-02-13T00:23:52;102378.94;;;7.14;66.92
65553;BME280;52465;51.560;14.368;2023-02-13T00:26:17;102348.75;;;6.94;66.48
65553;BME280;52465;51.560;14.368;2023-02-13T00:28:44;102387.41;;;7.18;66.70
65553;BME280;52465;51.560;14.368;2023-02-13T00:31:12;102383.22;;;7.15;66.85
65553;BME280;52465;51.560;14.368;2023-02-13T00:33:38;102354.66;;;6.98;66.62
65553;BME280;52465;51.560;14.368;2023-02-13T00:36:08;102384.75;;;7.19;66.51
65553;BME280;52465;51.560;14.368;2023-02-13T00:38:34;102380.38;;;7.20;67.03
65553;BME280;52465;51.560;14.368;2023-02-13T00:41:00;102372.06;;;7.13;66.79
65553;BME280;52465;51.560;14.368;2023-02-13T00:43:25;102367.84;;;7.10;66.60
65553;BME280;52465;51.560;14.368;2023-02-13T00:45:51;102374.47;;;7.16;66.17
65553;BME280;52465;51.560;14.368;2023-02-13T00:48:16;102323.28;;;6.83;66.99
65553;BME280;52465;51.560;14.368;2023-02-13T00:50:42;102372.97;;;7.12;67.03
65553;BME280;52465;51.560;14.368;2023-02-13T00:53:07;102375.50;;;7.13;66.90
65553;BME280;52465;51.560;14.368;2023-02-13T00:55:33;102390.81;;;7.20;67.36
65553;BME280;52465;51.560;14.368;2023-02-13T00:57:59;102389.03;;;7.20;67.29
65553;BME280;52465;51.560;14.368;2023-02-13T01:00:25;102354.31;;;7.04;67.28
65553;BME280;52465;51.560;14.368;2023-02-13T01:02:51;102378.75;;;7.17;67.03
65553;BME280;52465;51.560;14.368;2023-02-13T01:05:16;102357.59;;;7.07;66.74
65553;BME280;52465;51.560;14.368;2023-02-13T01:07:42;102380.38;;;7.20;66.38
65553;BME280;52465;51.560;14.368;2023-02-13T01:10:08;102320.53;;;6.86;67.31
65553;BME280;52465;51.560;14.368;2023-02-13T01:12:34;102350.19;;;7.00;67.03
65553;BME280;52465;51.560;14.368;2023-02-13T01:14:59;102344.03;;;7.01;67.07
65553;BME280;52465;51.560;14.368;2023-02-13T01:17:24;102342.28;;;7.01;67.32
65553;BME280;52465;51.560;14.368;2023-02-13T01:19:50;102329.69;;;6.94;66.68
65553;BME280;52465;51.560;14.368;2023-02-13T01:22:15;102307.00;;;6.80;67.47
65553;BME280;52465;51.560;14.368;2023-02-13T01:24:41;102372.81;;;7.15;66.99
65553;BME280;52465;51.560;14.368;2023-02-13T01:27:06;102361.56;;;7.14;66.75
65553;BME280;52465;51.560;14.368;2023-02-13T01:29:32;102339.69;;;7.01;66.77
65553;BME280;52465;51.560;14.368;2023-02-13T01:31:57;102368.19;;;7.20;67.41
65553;BME280;52465;51.560;14.368;2023-02-13T01:34:23;102363.97;;;7.18;67.38
65553;BME280;52465;51.560;14.368;2023-02-13T01:36:48;102317.09;;;6.86;67.08
65553;BME280;52465;51.560;14.368;2023-02-13T01:39:14;102336.22;;;7.01;67.00
65553;BME280;52465;51.560;14.368;2023-02-13T01:41:39;102309.03;;;6.91;66.94
65553;BME280;52465;51.560;14.368;2023-02-13T01:47:09;102334.22;;;7.06;66.42
65553;BME280;52465;51.560;14.368;2023-02-13T01:49:37;102329.09;;;7.04;66.97
65553;BME280;52465;51.560;14.368;2023-02-13T01:52:03;102333.97;;;7.10;66.88
65553;BME280;52465;51.560;14.368;2023-02-13T01:54:30;102326.75;;;7.00;66.23
65553;BME280;52465;51.560;14.368;2023-02-13T01:57:14;102356.09;;;7.19;67.12
65553;BME280;52465;51.560;14.368;2023-02-13T01:59:50;102315.09;;;6.91;66.96
65553;BME280;52465;51.560;14.368;2023-02-13T02:02:17;102351.88;;;7.16;66.81
65553;BME280;52465;51.560;14.368;2023-02-13T02:04:44;102333.47;;;7.04;66.88
65553;BME280;52465;51.560;14.368;2023-02-13T02:07:19;102345.09;;;7.14;66.87
65553;BME280;52465;51.560;14.368;2023-02-13T02:09:45;102297.34;;;6.82;66.63
65553;BME280;52465;51.560;14.368;2023-02-13T02:12:30;102356.94;;;7.20;67.13
65553;BME280;52465;51.560;14.368;2023-02-13T02:15:00;102306.44;;;6.91;67.15
65553;BME280;52465;51.560;14.368;2023-02-13T02:17:26;102336.19;;;7.02;67.01
65553;BME280;52465;51.560;14.368;2023-02-13T02:34:20;102345.69;;;7.19;67.08
65553;BME280;52465;51.560;14.368;2023-02-13T02:43:26;102338.75;;;7.18;67.12
65553;BME280;52465;51.560;14.368;2023-02-13T02:46:12;102344.84;;;7.19;67.01
65553;BME280;52465;51.560;14.368;2023-02-13T02:48:48;102325.34;;;7.10;66.99
65553;BME280;52465;51.560;14.368;2023-02-13T02:57:26;102336.59;;;7.10;67.07
65553;BME280;52465;51.560;14.368;2023-02-13T03:00:19;102326.34;;;7.07;66.70
65553;BME280;52465;51.560;14.368;2023-02-13T03:03:08;102324.59;;;7.08;67.35
65553;BME280;52465;51.560;14.368;2023-02-13T03:05:56;102301.72;;;6.97;66.99
65553;BME280;52465;51.560;14.368;2023-02-13T03:08:32;102326.91;;;7.12;67.47
65553;BME280;52465;51.560;14.368;2023-02-13T03:11:16;102340.47;;;7.19;66.83
65553;BME280;52465;51.560;14.368;2023-02-13T03:14:02;102280.03;;;6.81;67.21
65553;BME280;52465;51.560;14.368;2023-02-13T03:16:30;102342.25;;;7.19;66.77
65553;BME280;52465;51.560;14.368;2023-02-13T03:25:16;102348.28;;;7.19;66.96
65553;BME280;52465;51.560;14.368;2023-02-13T03:39:33;102311.69;;;6.89;66.63
65553;BME280;52465;51.560;14.368;2023-02-13T03:42:07;102317.16;;;7.00;67.38
65553;BME280;52465;51.560;14.368;2023-02-13T03:44:45;102325.66;;;7.04;66.79
65553;BME280;52465;51.560;14.368;2023-02-13T03:47:34;102308.59;;;6.98;67.00
65553;BME280;52465;51.560;14.368;2023-02-13T03:50:01;102349.97;;;7.20;66.59
65553;BME280;52465;51.560;14.368;2023-02-13T03:52:49;102338.72;;;7.20;66.93
65553;BME280;52465;51.560;14.368;2023-02-13T03:55:24;102327.94;;;7.10;67.30
65553;BME280;52465;51.560;14.368;2023-02-13T03:58:16;102342.72;;;7.09;66.98
65553;BME280;52465;51.560;14.368;2023-02-13T04:01:05;102331.28;;;7.12;66.90
65553;BME280;52465;51.560;14.368;2023-02-13T04:03:58;102344.84;;;7.19;66.74
65553;BME280;52465;51.560;14.368;2023-02-13T04:06:35;102329.84;;;7.06;67.08
65553;BME280;52465;51.560;14.368;2023-02-13T04:09:02;102297.44;;;6.80;66.67
65553;BME280;52465;51.560;14.368;2023-02-13T04:11:36;102302.22;;;6.88;67.16
65553;BME280;52465;51.560;14.368;2023-02-13T04:14:20;102348.19;;;7.21;66.81
65553;BME280;52465;51.560;14.368;2023-02-13T04:17:03;102319.44;;;7.06;66.94
65553;BME280;52465;51.560;14.368;2023-02-13T04:19:31;102348.34;;;7.18;67.32
65553;BME280;52465;51.560;14.368;2023-02-13T04:21:58;102317.94;;;7.02;67.37
65553;BME280;52465;51.560;14.368;2023-02-13T04:24:25;102318.78;;;7.03;66.84
65553;BME280;52465;51.560;14.368;2023-02-13T04:26:52;102286.84;;;6.83;66.89
65553;BME280;52465;51.560;14.368;2023-02-13T04:29:21;102331.88;;;7.01;66.78
65553;BME280;52465;51.560;14.368;2023-02-13T04:31:47;102346.66;;;7.16;67.19
65553;BME280;52465;51.560;14.368;2023-02-13T04:34:12;102300.94;;;6.95;67.28
65553;BME280;52465;51.560;14.368;2023-02-13T04:36:38;102312.75;;;7.02;67.12
65553;BME280;52465;51.560;14.368;2023-02-13T04:39:03;102344.66;;;7.22;66.68
65553;BME280;52465;51.560;14.368;2023-02-13T04:41:29;102335.06;;;7.06;66.80
65553;BME280;52465;51.560;14.368;2023-02-13T04:43:54;102349.88;;;7.22;66.70
65553;BME280;52465;51.560;14.368;2023-02-13T04:46:19;102332.91;;;7.14;67.20
65553;BME280;52465;51.560;14.368;2023-02-13T04:48:45;102346.34;;;7.23;67.51
65553;BME280;52465;51.560;14.368;2023-02-13T04:51:10;102354.25;;;7.21;67.09
65553;BME280;52465;51.560;14.368;2023-02-13T04:53:36;102295.16;;;6.90;67.04
65553;BME280;52465;51.560;14.368;2023-02-13T04:56:01;102325.47;;;7.07;66.86
65553;BME280;52465;51.560;14.368;2023-02-13T04:58:27;102365.34;;;7.25;67.15
65553;BME280;52465;51.560;14.368;2023-02-13T05:00:52;102361.91;;;7.24;66.90
65553;BME280;52465;51.560;14.368;2023-02-13T05:03:20;102339.69;;;7.17;67.30
65553;BME280;52465;51.560;14.368;2023-02-13T05:05:47;102322.88;;;7.07;66.94
65553;BME280;52465;51.560;14.368;2023-02-13T05:08:13;102352.31;;;7.25;66.89
65553;BME280;52465;51.560;14.368;2023-02-13T05:10:39;102304.47;;;6.94;67.18
65553;BME280;52465;51.560;14.368;2023-02-13T05:13:04;102333.00;;;7.13;67.02
65553;BME280;52465;51.560;14.368;2023-02-13T05:15:30;102321.97;;;7.08;67.19
65553;BME280;52465;51.560;14.368;2023-02-13T05:17:55;102344.50;;;7.25;67.48
65553;BME280;52465;51.560;14.368;2023-02-13T05:20:20;102351.41;;;7.26;66.75
65553;BME280;52465;51.560;14.368;2023-02-13T05:22:48;102306.50;;;6.89;67.18
65553;BME280;52465;51.560;14.368;2023-02-13T05:25:34;102333.06;;;7.11;66.78
65553;BME280;52465;51.560;14.368;2023-02-13T05:28:00;102340.63;;;7.16;67.24
65553;BME280;52465;51.560;14.368;2023-02-13T05:30:28;102348.88;;;7.24;66.40
65553;BME280;52465;51.560;14.368;2023-02-13T05:32:54;102356.00;;;7.21;67.21
65553;BME280;52465;51.560;14.368;2023-02-13T05:35:22;102339.19;;;7.10;67.26
65553;BME280;52465;51.560;14.368;2023-02-13T05:37:49;102351.03;;;7.16;67.40
65553;BME280;52465;51.560;14.368;2023-02-13T05:40:17;102365.34;;;7.25;67.15
65553;BME280;52465;51.560;14.368;2023-02-13T05:42:42;102329.09;;;7.04;66.82
65553;BME280;52465;51.560;14.368;2023-02-13T05:45:08;102363.97;;;7.18;67.20
65553;BME280;52465;51.560;14.368;2023-02-13T05:47:35;102327.91;;;6.94;66.92
65553;BME280;52465;51.560;14.368;2023-02-13T05:50:01;102309.88;;;6.91;67.21
65553;BME280;52465;51.560;14.368;2023-02-13T05:52:26;102374.16;;;7.22;67.10
65553;BME280;52465;51.560;14.368;2023-02-13T05:54:51;102379.13;;;7.27;67.36
65553;BME280;52465;51.560;14.368;2023-02-13T05:57:17;102354.22;;;7.05;67.09
65553;BME280;52465;51.560;14.368;2023-02-13T05:59:43;102365.69;;;7.19;66.97
65553;BME280;52465;51.560;14.368;2023-02-13T06:02:11;102383.50;;;7.26;67.44
65553;BME280;52465;51.560;14.368;2023-02-13T06:04:37;102358.09;;;7.14;66.69
65553;BME280;52465;51.560;14.368;2023-02-13T06:07:02;102369.19;;;7.18;67.41
65553;BME280;52465;51.560;14.368;2023-02-13T06:09:28;102382.66;;;7.26;67.16
65553;BME280;52465;51.560;14.368;2023-02-13T06:11:53;102335.06;;;6.91;67.71
65553;BME280;52465;51.560;14.368;2023-02-13T06:14:19;102374.66;;;7.13;67.04
65553;BME280;52465;51.560;14.368;2023-02-13T06:16:44;102395.69;;;7.26;66.98
65553;BME280;52465;51.560;14.368;2023-02-13T06:19:09;102392.25;;;7.25;67.34
65553;BME280;52465;51.560;14.368;2023-02-13T06:21:35;102398.44;;;7.23;67.11
65553;BME280;52465;51.560;14.368;2023-02-13T06:24:05;102368.91;;;7.06;67.06
65553;BME280;52465;51.560;14.368;2023-02-13T06:26:31;102384.06;;;7.15;66.94
65553;BME280;52465;51.560;14.368;2023-02-13T06:28:56;102345.31;;;6.94;66.54
65553;BME280;52465;51.560;14.368;2023-02-13T06:31:22;102397.44;;;7.25;66.70
65553;BME280;52465;51.560;14.368;2023-02-13T06:33:48;102395.69;;;7.26;66.81
65553;BME280;52465;51.560;14.368;2023-02-13T06:36:13;102391.72;;;7.19;67.25
65553;BME280;52465;51.560;14.368;2023-02-13T06:38:39;102379.69;;;7.16;67.03
65553;BME280;52465;51.560;14.368;2023-02-13T06:41:08;102391.72;;;7.19;67.15
65553;BME280;52465;51.560;14.368;2023-02-13T06:43:34;102346.16;;;6.94;67.33
65553;BME280;52465;51.560;14.368;2023-02-13T06:46:06;102405.16;;;7.27;66.95
65553;BME280;52465;51.560;14.368;2023-02-13T06:48:32;102356.47;;;6.96;66.88
65553;BME280;52465;51.560;14.368;2023-02-13T06:50:58;102398.63;;;7.20;67.12
65553;BME280;52465;51.560;14.368;2023-02-13T06:53:25;102398.16;;;7.11;67.53
65553;BME280;52465;51.560;14.368;2023-02-13T06:55:51;102423.50;;;7.25;66.56
65553;BME280;52465;51.560;14.368;2023-02-13T06:58:18;102419.13;;;7.26;67.06
65553;BME280;52465;51.560;14.368;2023-02-13T07:00:44;102371.94;;;6.99;67.26
65553;BME280;52465;51.560;14.368;2023-02-13T07:03:10;102420.13;;;7.23;67.00
65553;BME280;52465;51.560;14.368;2023-02-13T07:05:38;102410.88;;;7.18;67.44
65553;BME280;52465;51.560;14.368;2023-02-13T07:08:04;102382.50;;;6.96;66.89
65553;BME280;52465;51.560;14.368;2023-02-13T07:10:30;102424.44;;;7.24;66.54
65553;BME280;52465;51.560;14.368;2023-02-13T07:12:55;102411.03;;;7.14;67.08
65553;BME280;52465;51.560;14.368;2023-02-13T07:15:21;102433.13;;;7.23;67.17
65553;BME280;52465;51.560;14.368;2023-02-13T07:17:46;102395.88;;;7.05;66.88
65553;BME280;52465;51.560;14.368;2023-02-13T07:20:12;102396.06;;;7.02;66.79
65553;BME280;52465;51.560;14.368;2023-02-13T07:22:38;102435.59;;;7.26;66.68
65553;BME280;52465;51.560;14.368;2023-02-13T07:25:06;102406.41;;;7.04;66.83
65553;BME280;52465;51.560;14.368;2023-02-13T07:27:31;102429.88;;;7.20;66.79
65553;BME280;52465;51.560;14.368;2023-02-13T07:29:57;102427.19;;;7.21;67.33
65553;BME280;52465;51.560;14.368;2023-02-13T07:32:23;102441.66;;;7.27;66.52
65553;BME280;52465;51.560;14.368;2023-02-13T07:34:49;102428.03;;;7.22;67.12
65553;BME280;52465;51.560;14.368;2023-02-13T07:37:14;102419.59;;;7.16;67.19
65553;BME280;52465;51.560;14.368;2023-02-13T07:39:40;102442.47;;;7.27;67.51
65553;BME280;52465;51.560;14.368;2023-02-13T07:42:06;102425.50;;;7.20;67.43
65553;BME280;52465;51.560;14.368;2023-02-13T07:44:32;102435.59;;;7.26;66.91
65553;BME280;52465;51.560;14.368;2023-02-13T07:46:57;102435.59;;;7.26;67.00
65553;BME280;52465;51.560;14.368;2023-02-13T07:49:24;102389.66;;;6.92;66.91
65553;BME280;52465;51.560;14.368;2023-02-13T07:51:49;102430.72;;;7.20;67.17
65553;BME280;52465;51.560;14.368;2023-02-13T07:54:15;102423.28;;;7.12;67.45
65553;BME280;52465;51.560;14.368;2023-02-13T07:56:41;102435.59;;;7.26;66.98
65553;BME280;52465;51.560;14.368;2023-02-13T07:59:06;102397.97;;;6.99;67.08
65553;BME280;52465;51.560;14.368;2023-02-13T08:01:32;102442.41;;;7.29;66.93
65553;BME280;52465;51.560;14.368;2023-02-13T08:03:57;102430.53;;;7.23;66.83
65553;BME280;52465;51.560;14.368;2023-02-13T08:06:23;102417.00;;;7.16;67.24
65553;BME280;52465;51.560;14.368;2023-02-13T08:08:48;102444.09;;;7.30;67.23
65553;BME280;52465;51.560;14.368;2023-02-13T08:11:31;102406.50;;;7.02;66.81
65553;BME280;52465;51.560;14.368;2023-02-13T08:14:16;102438.34;;;7.23;66.94
65553;BME280;52465;51.560;14.368;2023-02-13T08:16:41;102437.75;;;7.18;66.98
65553;BME280;52465;51.560;14.368;2023-02-13T08:19:06;102454.59;;;7.28;67.12
65553;BME280;52465;51.560;14.368;2023-02-13T08:21:32;102450.31;;;7.27;67.08
65553;BME280;52465;51.560;14.368;2023-02-13T08:23:59;102450.47;;;7.24;67.30
65553;BME280;52465;51.560;14.368;2023-02-13T08:26:25;102459.72;;;7.30;67.09
65553;BME280;52465;51.560;14.368;2023-02-13T08:28:50;102452.91;;;7.27;67.04
65553;BME280;52465;51.560;14.368;2023-02-13T08:31:17;102458.03;;;7.29;66.38
65553;BME280;52465;51.560;14.368;2023-02-13T08:33:42;102446.25;;;7.22;67.23
65553;BME280;52465;51.560;14.368;2023-02-13T08:36:08;102453.16;;;7.23;66.95
65553;BME280;52465;51.560;14.368;2023-02-13T08:38:33;102459.72;;;7.30;66.79
65553;BME280;52465;51.560;14.368;2023-02-13T08:40:59;102449.47;;;7.27;66.87
65553;BME280;52465;51.560;14.368;2023-02-13T08:43:24;102453.59;;;7.31;66.91
65553;BME280;52465;51.560;14.368;2023-02-13T08:45:53;102453.59;;;7.31;66.48
65553;BME280;52465;51.560;14.368;2023-02-13T08:48:18;102447.94;;;7.23;67.08
65553;BME280;52465;51.560;14.368;2023-02-13T08:50:47;102427.00;;;7.08;66.92
65553;BME280;52465;51.560;14.368;2023-02-13T08:53:15;102460.72;;;7.27;66.68
65553;BME280;52465;51.560;14.368;2023-02-13T08:55:40;102458.13;;;7.27;66.71
65553;BME280;52465;51.560;14.368;2023-02-13T08:58:06;102465.69;;;7.32;66.83
65553;BME280;52465;51.560;14.368;2023-02-13T09:00:31;102441.88;;;7.22;67.26
65553;BME280;52465;51.560;14.368;2023-02-13T09:03:01;102469.97;;;7.33;67.32
65553;BME280;52465;51.560;14.368;2023-02-13T09:05:27;102458.88;;;7.29;66.64
65553;BME280;52465;51.560;14.368;2023-02-13T09:07:53;102460.91;;;7.24;67.00
65553;BME280;52465;51.560;14.368;2023-02-13T09:10:19;102438.25;;;7.09;66.71
65553;BME280;52465;51.560;14.368;2023-02-13T09:12:51;102463.56;;;7.23;67.32
65553;BME280;52465;51.560;14.368;2023-02-13T09:15:16;102475.03;;;7.36;66.93
65553;BME280;52465;51.560;14.368;2023-02-13T09:17:42;102469.06;;;7.34;67.52
65553;BME280;52465;51.560;14.368;2023-02-13T09:20:08;102456.75;;;7.20;66.58
65553;BME280;52465;51.560;14.368;2023-02-13T09:22:33;102463.94;;;7.32;67.40
65553;BME280;52465;51.560;14.368;2023-02-13T09:24:58;102469.13;;;7.32;67.65
65553;BME280;52465;51.560;14.368;2023-02-13T09:27:28;102473.28;;;7.36;66.85
65553;BME280;52465;51.560;14.368;2023-02-13T09:29:54;102441.97;;;7.21;66.80
65553;BME280;52465;51.560;14.368;2023-02-13T09:32:19;102427.75;;;7.10;67.31
65553;BME280;52465;51.560;14.368;2023-02-13T09:34:45;102466.38;;;7.35;67.18
65553;BME280;52465;51.560;14.368;2023-02-13T09:37:10;102469.06;;;7.34;66.79
65553;BME280;52465;51.560;14.368;2023-02-13T09:39:44;102451.22;;;7.26;66.31
65553;BME280;52465;51.560;14.368;2023-02-13T09:42:22;102468.91;;;7.37;67.21
65553;BME280;52465;51.560;14.368;2023-02-13T09:44:52;102451.81;;;7.31;66.89
65553;BME280;52465;51.560;14.368;2023-02-13T09:49:49;102460.47;;;7.32;67.58
65553;BME280;52465;51.560;14.368;2023-02-13T09:52:17;102451.47;;;7.22;67.40
65553;BME280;52465;51.560;14.368;2023-02-13T09:54:42;102457.97;;;7.30;66.56
65553;BME280;52465;51.560;14.368;2023-02-13T09:57:26;102467.22;;;7.36;67.21
65553;BME280;52465;51.560;14.368;2023-02-13T10:05:33;102439.38;;;7.21;67.49
65553;BME280;52465;51.560;14.368;2023-02-13T10:14:15;102474.78;;;7.40;67.02
65553;BME280;52465;51.560;14.368;2023-02-13T10:16:48;102476.47;;;7.41;67.11
65553;BME280;52465;51.560;14.368;2023-02-13T10:22:22;102469.56;;;7.40;67.22
65553;BME280;52465;51.560;14.368;2023-02-13T10:24:56;102461.31;;;7.32;66.98
65553;BME280;52465;51.560;14.368;2023-02-13T10:27:36;102467.72;;;7.42;67.38
65553;BME280;52465;51.560;14.368;2023-02-13T10:30:07;102454.78;;;7.41;66.77
65553;BME280;52465;51.560;14.368;2023-02-13T10:33:16;102464.19;;;7.43;67.12
65553;BME280;52465;51.560;14.368;2023-02-13T10:36:00;102398.41;;;7.07;67.01
65553;BME280;52465;51.560;14.368;2023-02-13T10:38:29;102439.31;;;7.38;67.08
65553;BME280;52465;51.560;14.368;2023-02-13T10:49:46;102444.88;;;7.48;67.06
65553;BME280;52465;51.560;14.368;2023-02-13T10:55:10;102441.25;;;7.50;66.84
65553;BME280;52465;51.560;14.368;2023-02-13T10:58:06;102435.28;;;7.48;66.91
65553;BME280;52465;51.560;14.368;2023-02-13T11:00:47;102434.28;;;7.51;66.75
65553;BME280;52465;51.560;14.368;2023-02-13T11:03:21;102428.22;;;7.50;67.06
65553;BME280;52465;51.560;14.368;2023-02-13T11:05:49;102423.19;;;7.47;67.51
65553;BME280;52465;51.560;14.368;2023-02-13T11:08:21;102403.75;;;7.37;67.45
65553;BME280;52465;51.560;14.368;2023-02-13T11:10:48;102394.91;;;7.39;67.50
65553;BME280;52465;51.560;14.368;2023-02-13T11:13:20;102374.94;;;7.24;67.55
65553;BME280;52465;51.560;14.368;2023-02-13T11:16:05;102414.25;;;7.51;67.18
65553;BME280;52465;51.560;14.368;2023-02-13T11:18:39;102402.16;;;7.50;67.34
65553;BME280;52465;51.560;14.368;2023-02-13T11:21:09;102393.00;;;7.43;67.57
65553;BME280;52465;51.560;14.368;2023-02-13T11:23:43;102378.34;;;7.40;67.05
65553;BME280;52465;51.560;14.368;2023-02-13T11:26:30;102402.00;;;7.53;67.34
65553;BME280;52465;51.560;14.368;2023-02-13T11:29:03;102379.13;;;7.42;67.50
65553;BME280;52465;51.560;14.368;2023-02-13T11:31:33;102408.97;;;7.53;67.27
65553;BME280;52465;51.560;14.368;2023-02-13T11:39:39;102401.91;;;7.55;67.71
65553;BME280;52465;51.560;14.368;2023-02-13T11:42:14;102392.22;;;7.57;67.25
65553;BME280;52465;51.560;14.368;2023-02-13T11:44:41;102361.97;;;7.38;66.99
65553;BME280;52465;51.560;14.368;2023-02-13T11:47:10;102386.69;;;7.47;67.50
65553;BME280;52465;51.560;14.368;2023-02-13T11:49:38;102402.66;;;7.57;67.59
65553;BME280;52465;51.560;14.368;2023-02-13T11:52:24;102395.59;;;7.59;67.33
65553;BME280;52465;51.560;14.368;2023-02-13T11:55:01;102397.28;;;7.60;67.10
65553;BME280;52465;51.560;14.368;2023-02-13T11:57:30;102356.94;;;7.35;67.69
65553;BME280;52465;51.560;14.368;2023-02-13T12:02:49;102388.63;;;7.59;67.63
65553;BME280;52465;51.560;14.368;2023-02-13T12:05:21;102396.25;;;7.62;67.80
65553;BME280;52465;51.560;14.368;2023-02-13T12:07:51;102340.03;;;7.27;68.06
65553;BME280;52465;51.560;14.368;2023-02-13T12:10:23;102389.47;;;7.60;67.83
65553;BME280;52465;51.560;14.368;2023-02-13T12:13:05;102391.03;;;7.62;67.53
65553;BME280;52465;51.560;14.368;2023-02-13T12:15:35;102337.34;;;7.28;67.57
65553;BME280;52465;51.560;14.368;2023-02-13T12:20:40;102387.53;;;7.63;67.75
65553;BME280;52465;51.560;14.368;2023-02-13T12:23:33;102384.94;;;7.63;67.15
65553;BME280;52465;51.560;14.368;2023-02-13T12:40:27;102369.28;;;7.63;67.30
65553;BME280;52465;51.560;14.368;2023-02-13T12:45:57;102382.22;;;7.65;67.60
65553;BME280;52465;51.560;14.368;2023-02-13T12:54:17;102364.81;;;7.65;67.42
65553;BME280;52465;51.560;14.368;2023-02-13T13:05:30;102357.16;;;7.62;67.61
65553;BME280;52465;51.560;14.368;2023-02-13T13:08:16;102371.72;;;7.66;67.65
65553;BME280;52465;51.560;14.368;2023-02-13T13:16:52;102361.47;;;7.63;67.84
65553;BME280;52465;51.560;14.368;2023-02-13T13:19:25;102369.84;;;7.68;67.47
65553;BME280;52465;51.560;14.368;2023-02-13T13:22:25;102367.34;;;7.67;67.91
65553;BME280;52465;51.560;14.368;2023-02-13T13:25:02;102378.53;;;7.69;67.56
65553;BME280;52465;51.560;14.368;2023-02-13T13:27:35;102375.06;;;7.68;67.10
65553;BME280;52465;51.560;14.368;2023-02-13T13:30:17;102352.47;;;7.53;67.81
65553;BME280;52465;51.560;14.368;2023-02-13T13:32:47;102375.34;;;7.64;67.60
65553;BME280;52465;51.560;14.368;2023-02-13T13:35:16;102387.94;;;7.72;67.83
65553;BME280;52465;51.560;14.368;2023-02-13T13:40:51;102362.97;;;7.67;68.15
65553;BME280;52465;51.560;14.368;2023-02-13T13:46:50;102352.47;;;7.69;67.76
65553;BME280;52465;51.560;14.368;2023-02-13T13:49:53;102366.34;;;7.69;67.85
65553;BME280;52465;51.560;14.368;2023-02-13T13:52:21;102373.22;;;7.71;67.40
65553;BME280;52465;51.560;14.368;2023-02-13T13:54:48;102314.22;;;7.38;67.71
65553;BME280;52465;51.560;14.368;2023-02-13T13:57:23;102347.66;;;7.61;67.29
65553;BME280;52465;51.560;14.368;2023-02-13T13:59:57;102356.75;;;7.70;68.20
65553;BME280;52465;51.560;14.368;2023-02-13T14:05:20;102354.06;;;7.72;67.15
65553;BME280;52465;51.560;14.368;2023-02-13T14:07:48;102355.81;;;7.71;67.46
65553;BME280;52465;51.560;14.368;2023-02-13T14:23:25;102347.16;;;7.71;67.33
65553;BME280;52465;51.560;14.368;2023-02-13T14:28:42;102340.28;;;7.69;67.40
65553;BME280;52465;51.560;14.368;2023-02-13T14:31:29;102326.22;;;7.72;67.58
65553;BME280;52465;51.560;14.368;2023-02-13T14:36:45;102309.34;;;7.63;68.05
65553;BME280;52465;51.560;14.368;2023-02-13T14:39:25;102329.66;;;7.73;67.82
65553;BME280;52465;51.560;14.368;2023-02-13T14:46:49;102276.41;;;7.47;67.42
65553;BME280;52465;51.560;14.368;2023-02-13T14:49:23;102311.50;;;7.71;67.81
65553;BME280;52465;51.560;14.368;2023-02-13T14:51:53;102269.25;;;7.50;67.64
65553;BME280;52465;51.560;14.368;2023-02-13T14:57:06;102298.03;;;7.63;67.73
65553;BME280;52465;51.560;14.368;2023-02-13T14:59:35;102302.34;;;7.64;68.01
65553;BME280;52465;51.560;14.368;2023-02-13T15:02:25;102322.03;;;7.69;68.03
65553;BME280;52465;51.560;14.368;2023-02-13T15:07:28;102317.44;;;7.73;67.40
65553;BME280;52465;51.560;14.368;2023-02-13T15:10:01;102316.72;;;7.71;67.41
65553;BME280;52465;51.560;14.368;2023-02-13T15:12:33;102319.13;;;7.74;67.76
65553;BME280;52465;51.560;14.368;2023-02-13T15:15:00;102298.22;;;7.60;67.97
65553;BME280;52465;51.560;14.368;2023-02-13T15:17:28;102314.84;;;7.73;67.58
65553;BME280;52465;51.560;14.368;2023-02-13T15:20:07;102281.53;;;7.48;67.88
65553;BME280;52465;51.560;14.368;2023-02-13T15:22:45;102297.03;;;7.65;67.83
65553;BME280;52465;51.560;14.368;2023-02-13T15:25:37;102307.84;;;7.74;68.01
65553;BME280;52465;51.560;14.368;2023-02-13T15:28:04;102311.31;;;7.74;68.17
65553;BME280;52465;51.560;14.368;2023-02-13T15:30:34;102307.03;;;7.73;67.88
65553;BME280;52465;51.560;14.368;2023-02-13T15:33:16;102295.28;;;7.66;67.76
65553;BME280;52465;51.560;14.368;2023-02-13T15:35:41;102292.56;;;7.67;67.83
65553;BME280;52465;51.560;14.368;2023-02-13T15:40:50;102301.06;;;7.71;67.58
65553;BME280;52465;51.560;14.368;2023-02-13T15:43:29;102303.56;;;7.73;67.78
65553;BME280;52465;51.560;14.368;2023-02-13T15:46:05;102304.41;;;7.73;67.26
65553;BME280;52465;51.560;14.368;2023-02-13T15:48:32;102291.84;;;7.65;67.05
65553;BME280;52465;51.560;14.368;2023-02-13T15:51:01;102299.41;;;7.70;67.16
65553;BME280;52465;51.560;14.368;2023-02-13T15:53:27;102289.59;;;7.74;67.42